Time;durP1;ratioP1;P1;durP2;ratioP2;P2;SDS_P1;SDS_P2;PMS_P1;PMS_P2;Temp;Humidity;BMP_temperature;BMP_pressure;BME280_temperature;BME280_humidity;BME280_pressure;Samples;Min_cycle;Max_cycle;Signal;HPM_P1;HPM_P2
2021/09/20 00:00:53;;;;;;;8.80;6.13;;;12.00;99.90;;;;;;6214573;22;20102;-76
2021/09/20 00:03:19;;;;;;;11.43;7.35;;;11.90;99.90;;;;;;6215808;22;20070;-76
2021/09/20 00:05:44;;;;;;;8.65;6.50;;;11.80;99.90;;;;;;6265804;22;20019;-76
2021/09/20 00:08:10;;;;;;;11.10;6.43;;;11.80;99.90;;;;;;6262664;22;20766;-78
2021/09/20 00:10:36;;;;;;;9.93;6.45;;;11.70;99.90;;;;;;6267017;22;20104;-76
2021/09/20 00:13:03;;;;;;;9.93;6.60;;;11.70;99.90;;;;;;6214040;22;20630;-76
2021/09/20 00:15:28;;;;;;;9.48;6.38;;;11.60;99.90;;;;;;6242721;22;20067;-76
2021/09/20 00:17:54;;;;;;;9.27;6.00;;;11.60;99.90;;;;;;6193906;22;20314;-76
2021/09/20 00:20:23;;;;;;;9.68;6.32;;;11.50;99.90;;;;;;6244161;22;20015;-77
2021/09/20 00:22:55;;;;;;;9.48;5.60;;;11.50;99.90;;;;;;6268323;22;20098;-78
2021/09/20 00:25:24;;;;;;;8.43;6.07;;;11.40;99.90;;;;;;6243731;22;20103;-78
2021/09/20 00:27:50;;;;;;;13.23;6.60;;;11.30;99.90;;;;;;6218272;22;20023;-78
2021/09/20 00:30:18;;;;;;;8.98;6.47;;;11.30;99.90;;;;;;6217943;22;20015;-78
2021/09/20 00:32:44;;;;;;;10.27;6.47;;;11.20;99.90;;;;;;6193412;22;20020;-78
2021/09/20 00:35:10;;;;;;;8.73;6.10;;;11.20;99.90;;;;;;6264410;22;20512;-78
2021/09/20 00:37:36;;;;;;;9.30;6.25;;;11.10;99.90;;;;;;6241467;22;20047;-79
2021/09/20 00:40:03;;;;;;;10.23;5.85;;;11.00;99.90;;;;;;6260074;22;20019;-78
2021/09/20 00:42:29;;;;;;;10.90;6.95;;;11.00;99.90;;;;;;6267912;22;20016;-78
2021/09/20 00:44:55;;;;;;;12.02;6.78;;;11.00;99.90;;;;;;6268987;22;20038;-79
2021/09/20 00:47:21;;;;;;;9.68;6.93;;;10.90;99.90;;;;;;6242979;22;20489;-78
2021/09/20 00:49:47;;;;;;;10.82;6.90;;;10.80;99.90;;;;;;6217865;22;20333;-78
2021/09/20 00:52:13;;;;;;;11.77;7.75;;;10.80;99.90;;;;;;6214603;22;20020;-78
2021/09/20 00:54:39;;;;;;;11.23;7.05;;;10.70;99.90;;;;;;6244011;22;20020;-78
2021/09/20 00:57:06;;;;;;;9.88;7.20;;;10.70;99.90;;;;;;6243823;22;20069;-78
2021/09/20 00:59:31;;;;;;;12.13;7.25;;;10.70;99.90;;;;;;6241706;22;20114;-78
2021/09/20 01:01:58;;;;;;;12.52;7.13;;;10.60;99.90;;;;;;6243260;22;20487;-78
2021/09/20 01:04:24;;;;;;;12.15;7.70;;;10.60;99.90;;;;;;6239981;22;20023;-79
2021/09/20 01:06:50;;;;;;;10.90;7.78;;;10.60;99.90;;;;;;6263566;22;20023;-76
2021/09/20 01:09:16;;;;;;;11.02;7.80;;;10.50;99.90;;;;;;6212454;22;20522;-76
2021/09/20 01:11:43;;;;;;;10.57;7.63;;;10.50;99.90;;;;;;6243304;22;20020;-76
2021/09/20 01:14:10;;;;;;;11.23;7.82;;;10.40;99.90;;;;;;6218654;22;20008;-76
2021/09/20 01:16:36;;;;;;;10.35;7.38;;;10.40;99.90;;;;;;6268435;22;20051;-76
2021/09/20 01:19:02;;;;;;;15.75;8.05;;;10.40;99.90;;;;;;6241873;22;20026;-76
2021/09/20 01:21:28;;;;;;;11.93;7.60;;;10.40;99.90;;;;;;6242624;22;20607;-76
2021/09/20 01:23:53;;;;;;;13.35;7.75;;;10.30;99.90;;;;;;6244050;22;20016;-76
2021/09/20 01:26:29;;;;;;;11.05;8.18;;;10.30;99.90;;;;;;6243481;22;20404;-76
2021/09/20 01:28:54;;;;;;;11.77;8.15;;;10.30;99.90;;;;;;6217311;22;20631;-76
2021/09/20 01:31:23;;;;;;;10.20;7.15;;;10.20;99.90;;;;;;6218082;22;20026;-76
2021/09/20 01:33:49;;;;;;;11.68;8.02;;;10.20;99.90;;;;;;6233676;22;20015;-76
2021/09/20 01:36:15;;;;;;;13.85;9.27;;;10.20;99.90;;;;;;6192578;22;20397;-76
2021/09/20 01:38:40;;;;;;;12.98;7.97;;;10.20;99.90;;;;;;6214262;22;20178;-76
2021/09/20 01:41:06;;;;;;;13.50;8.48;;;10.20;99.90;;;;;;6218161;22;20099;-76
2021/09/20 01:43:32;;;;;;;12.07;8.68;;;10.10;99.90;;;;;;6242376;22;20099;-76
2021/09/20 01:45:58;;;;;;;11.38;8.43;;;10.10;99.90;;;;;;6240940;22;20011;-76
2021/09/20 01:48:24;;;;;;;10.52;8.50;;;10.10;99.90;;;;;;6267516;22;20016;-76
2021/09/20 01:50:50;;;;;;;11.65;7.93;;;10.10;99.90;;;;;;6215729;22;20026;-76
2021/09/20 01:53:16;;;;;;;13.25;8.88;;;10.10;99.90;;;;;;6243775;22;20325;-76
2021/09/20 01:55:42;;;;;;;12.15;8.82;;;10.20;99.90;;;;;;6217230;22;20019;-76
2021/09/20 01:58:08;;;;;;;13.25;8.88;;;10.10;99.90;;;;;;6216707;22;20456;-76
2021/09/20 02:00:34;;;;;;;12.57;8.68;;;10.00;99.90;;;;;;6239014;22;20019;-78
2021/09/20 02:03:00;;;;;;;12.35;8.75;;;10.00;99.90;;;;;;6237782;22;20047;-78
2021/09/20 02:05:26;;;;;;;13.82;9.43;;;9.90;99.90;;;;;;6267709;22;20023;-78
2021/09/20 02:07:52;;;;;;;12.20;9.23;;;9.90;99.90;;;;;;6210011;22;20015;-78
2021/09/20 02:10:18;;;;;;;13.05;9.43;;;9.90;99.90;;;;;;6190423;22;20091;-79
2021/09/20 02:12:44;;;;;;;11.93;9.77;;;9.90;99.90;;;;;;6216313;22;20224;-79
2021/09/20 02:15:11;;;;;;;14.75;9.95;;;9.90;99.90;;;;;;6213610;22;20019;-79
2021/09/20 02:17:37;;;;;;;14.07;10.07;;;9.90;99.90;;;;;;6242159;22;20399;-78
2021/09/20 02:20:04;;;;;;;14.18;10.15;;;9.90;99.90;;;;;;6264481;22;20026;-78
2021/09/20 02:22:30;;;;;;;13.60;9.98;;;9.80;99.90;;;;;;6267888;22;20102;-77
2021/09/20 02:24:56;;;;;;;14.52;10.38;;;9.80;99.90;;;;;;6214772;22;20464;-78
2021/09/20 02:27:22;;;;;;;14.70;10.15;;;9.70;99.90;;;;;;6268276;22;20015;-78
2021/09/20 02:29:48;;;;;;;14.68;10.07;;;9.70;99.90;;;;;;6213081;22;20019;-78
2021/09/20 02:32:14;;;;;;;13.30;10.63;;;9.70;99.90;;;;;;6241783;22;20061;-79
2021/09/20 02:34:40;;;;;;;13.82;11.00;;;9.70;99.90;;;;;;6262022;22;20369;-78
2021/09/20 02:37:06;;;;;;;15.85;10.98;;;9.70;99.90;;;;;;6242387;22;20012;-78
2021/09/20 02:39:31;;;;;;;12.95;10.90;;;9.60;99.90;;;;;;6240140;22;20016;-78
2021/09/20 02:41:57;;;;;;;15.07;11.90;;;9.60;99.90;;;;;;6240541;22;20020;-78
2021/09/20 02:44:23;;;;;;;15.20;11.02;;;9.60;99.90;;;;;;6217507;22;20012;-78
2021/09/20 02:46:49;;;;;;;13.27;10.27;;;9.60;99.90;;;;;;6238560;22;20020;-79
2021/09/20 02:49:16;;;;;;;14.65;11.43;;;9.60;99.90;;;;;;6242692;22;20011;-78
2021/09/20 02:51:42;;;;;;;14.20;10.35;;;9.60;99.90;;;;;;6263122;22;20027;-77
2021/09/20 02:54:07;;;;;;;13.23;11.52;;;9.60;99.90;;;;;;6241042;22;20039;-78
2021/09/20 02:56:33;;;;;;;13.65;10.90;;;9.60;99.90;;;;;;6267422;22;20098;-78
2021/09/20 02:58:59;;;;;;;17.13;11.15;;;9.60;99.90;;;;;;6237270;22;20024;-78
2021/09/20 03:01:25;;;;;;;12.13;9.85;;;9.60;99.90;;;;;;6239453;22;20383;-78
2021/09/20 03:03:51;;;;;;;14.70;10.95;;;9.60;99.90;;;;;;6242463;22;20339;-77
2021/09/20 03:06:17;;;;;;;12.20;10.30;;;9.60;99.90;;;;;;6217112;22;20094;-78
2021/09/20 03:08:42;;;;;;;14.05;11.25;;;9.60;99.90;;;;;;6241289;22;20467;-78
2021/09/20 03:11:08;;;;;;;13.27;10.43;;;9.60;99.90;;;;;;6240848;22;20024;-78
2021/09/20 03:13:34;;;;;;;13.55;10.75;;;9.60;99.90;;;;;;6241756;22;20528;-78
2021/09/20 03:16:00;;;;;;;13.40;11.73;;;9.60;99.90;;;;;;6266625;22;20098;-78
2021/09/20 03:18:26;;;;;;;13.52;11.70;;;9.60;99.90;;;;;;6213802;22;20020;-78
2021/09/20 03:20:51;;;;;;;17.98;13.18;;;9.60;99.90;;;;;;6215413;22;20027;-78
2021/09/20 03:23:17;;;;;;;17.48;13.68;;;9.60;99.90;;;;;;6238479;22;20070;-78
2021/09/20 03:25:43;;;;;;;17.90;13.18;;;9.60;99.90;;;;;;6216328;22;20019;-78
2021/09/20 03:28:09;;;;;;;17.25;14.25;;;9.60;99.90;;;;;;6236244;22;20065;-78
2021/09/20 03:30:34;;;;;;;19.48;14.18;;;9.60;99.90;;;;;;6238628;22;20023;-79
2021/09/20 03:33:03;;;;;;;17.20;13.93;;;9.60;99.90;;;;;;6239153;22;20077;-77
2021/09/20 03:35:29;;;;;;;19.02;12.82;;;9.70;99.90;;;;;;6242437;22;20019;-76
2021/09/20 03:37:55;;;;;;;17.77;13.50;;;9.70;99.90;;;;;;6239049;22;20045;-76
2021/09/20 03:40:21;;;;;;;14.18;12.25;;;9.70;99.90;;;;;;6189336;22;20363;-76
2021/09/20 03:42:47;;;;;;;17.20;13.50;;;9.80;99.90;;;;;;6264963;22;20048;-76
2021/09/20 03:45:15;;;;;;;17.67;13.95;;;9.80;99.90;;;;;;6267660;22;20479;-77
2021/09/20 03:47:41;;;;;;;18.10;13.00;;;9.80;99.90;;;;;;6269017;22;20025;-76
2021/09/20 03:50:08;;;;;;;17.15;14.65;;;9.80;99.90;;;;;;6267300;22;20016;-76
2021/09/20 03:52:34;;;;;;;16.25;14.48;;;9.90;99.90;;;;;;6269798;22;20027;-78
2021/09/20 03:54:59;;;;;;;21.38;14.25;;;9.90;99.90;;;;;;6240258;22;20031;-77
2021/09/20 03:57:25;;;;;;;14.98;13.35;;;10.00;99.90;;;;;;6244203;22;20020;-79
2021/09/20 03:59:51;;;;;;;18.52;14.43;;;10.00;99.90;;;;;;6215313;22;20030;-78
2021/09/20 04:02:17;;;;;;;16.20;13.68;;;10.00;99.90;;;;;;6266870;22;20024;-79
2021/09/20 04:04:43;;;;;;;16.98;13.30;;;10.00;99.90;;;;;;6242994;22;20340;-79
2021/09/20 04:07:09;;;;;;;15.70;13.65;;;10.10;99.90;;;;;;6216739;22;20051;-79
2021/09/20 04:09:34;;;;;;;16.23;12.85;;;10.10;99.90;;;;;;6244891;22;20109;-79
2021/09/20 04:12:00;;;;;;;15.50;12.80;;;10.20;99.90;;;;;;6241424;22;20038;-78
2021/09/20 04:14:26;;;;;;;16.90;13.35;;;10.20;99.90;;;;;;6216807;22;20448;-78
2021/09/20 04:16:53;;;;;;;16.90;13.50;;;10.20;99.90;;;;;;6243391;22;20015;-78
2021/09/20 04:19:19;;;;;;;16.35;12.70;;;10.30;99.90;;;;;;6242489;22;20022;-78
2021/09/20 04:21:45;;;;;;;17.27;13.10;;;10.30;99.90;;;;;;6244223;22;20047;-78
2021/09/20 04:24:11;;;;;;;14.68;12.80;;;10.30;99.90;;;;;;6242282;22;20093;-78
2021/09/20 04:26:37;;;;;;;14.80;12.73;;;10.30;99.90;;;;;;6244506;22;20317;-78
2021/09/20 04:29:03;;;;;;;15.32;13.00;;;10.30;99.90;;;;;;6219421;22;20019;-78
2021/09/20 04:31:28;;;;;;;17.15;14.20;;;10.30;99.90;;;;;;6215690;22;20023;-78
2021/09/20 04:33:54;;;;;;;19.73;13.70;;;10.30;99.90;;;;;;6195441;22;20456;-79
2021/09/20 04:36:23;;;;;;;16.27;13.05;;;10.30;99.90;;;;;;6217023;22;20054;-76
2021/09/20 04:38:49;;;;;;;15.07;12.45;;;10.40;99.90;;;;;;6244707;22;20081;-76
2021/09/20 04:41:17;;;;;;;17.02;12.70;;;10.40;99.90;;;;;;6244597;22;20027;-78
2021/09/20 04:43:43;;;;;;;15.55;12.65;;;10.40;99.90;;;;;;6242173;22;20047;-79
2021/09/20 04:46:09;;;;;;;15.75;12.80;;;10.40;99.90;;;;;;6219686;22;20321;-76
2021/09/20 04:48:35;;;;;;;16.50;13.40;;;10.40;99.90;;;;;;6242095;22;20066;-76
2021/09/20 04:51:01;;;;;;;14.90;12.52;;;10.40;99.90;;;;;;6218886;22;20016;-76
2021/09/20 04:53:27;;;;;;;17.52;13.68;;;10.50;99.90;;;;;;6240664;22;20019;-76
2021/09/20 04:55:52;;;;;;;15.20;13.15;;;10.50;99.90;;;;;;6194027;22;20020;-76
2021/09/20 04:58:21;;;;;;;17.63;13.38;;;10.50;99.90;;;;;;6268749;22;20395;-76
2021/09/20 05:00:47;;;;;;;16.65;13.73;;;10.50;99.90;;;;;;6266715;22;20027;-76
2021/09/20 05:03:13;;;;;;;16.95;13.18;;;10.50;99.90;;;;;;6217601;22;20030;-76
2021/09/20 05:05:38;;;;;;;15.52;13.75;;;10.50;99.90;;;;;;6217391;22;20027;-76
2021/09/20 05:08:05;;;;;;;15.10;12.68;;;10.60;99.90;;;;;;6244340;22;20016;-76
2021/09/20 05:10:31;;;;;;;15.27;12.38;;;10.60;99.90;;;;;;6241801;22;20019;-76
2021/09/20 05:12:56;;;;;;;14.38;12.63;;;10.60;99.90;;;;;;6242392;22;20467;-76
2021/09/20 05:15:22;;;;;;;18.48;13.13;;;10.60;99.90;;;;;;6268728;22;20020;-76
2021/09/20 05:17:48;;;;;;;17.58;13.15;;;10.60;99.90;;;;;;6217209;22;20022;-76
2021/09/20 05:20:15;;;;;;;16.08;13.32;;;10.60;99.90;;;;;;6269668;22;20558;-76
2021/09/20 05:22:42;;;;;;;15.07;12.95;;;10.70;99.90;;;;;;6242153;22;20355;-76
2021/09/20 05:25:09;;;;;;;15.43;13.30;;;10.70;99.90;;;;;;6218328;22;20020;-76
2021/09/20 05:27:36;;;;;;;16.38;13.10;;;10.70;99.90;;;;;;6243438;22;20462;-76
2021/09/20 05:30:02;;;;;;;14.57;12.27;;;10.80;99.90;;;;;;6240101;22;20019;-76
2021/09/20 05:32:29;;;;;;;15.85;12.50;;;10.80;99.90;;;;;;6217360;22;20015;-76
2021/09/20 05:34:55;;;;;;;16.38;12.98;;;10.80;99.90;;;;;;6240636;22;20077;-76
2021/09/20 05:37:23;;;;;;;16.73;12.88;;;10.80;99.90;;;;;;6216242;22;20470;-76
2021/09/20 05:39:49;;;;;;;15.57;13.52;;;10.80;99.90;;;;;;6243816;22;20020;-76
2021/09/20 05:42:16;;;;;;;15.82;11.68;;;10.90;99.90;;;;;;6242200;22;20012;-76
2021/09/20 05:44:43;;;;;;;18.02;13.25;;;10.90;99.90;;;;;;6242860;22;20015;-76
2021/09/20 05:47:10;;;;;;;16.27;11.68;;;10.90;99.90;;;;;;6265546;22;20025;-76
2021/09/20 05:49:36;;;;;;;16.00;12.07;;;10.90;99.90;;;;;;6267934;22;20058;-75
2021/09/20 05:52:02;;;;;;;16.38;12.63;;;10.90;99.90;;;;;;6215621;22;20527;-75
2021/09/20 05:54:31;;;;;;;14.95;12.35;;;11.00;99.90;;;;;;6241556;22;20080;-75
2021/09/20 05:56:57;;;;;;;15.45;11.48;;;11.00;99.90;;;;;;6267886;22;20051;-75
2021/09/20 05:59:23;;;;;;;12.88;11.57;;;11.10;99.90;;;;;;6218096;22;20019;-75
2021/09/20 06:01:49;;;;;;;14.32;11.50;;;11.10;99.90;;;;;;6240652;22;20016;-75
2021/09/20 06:04:15;;;;;;;13.82;11.32;;;11.10;99.90;;;;;;6242122;22;20508;-75
2021/09/20 06:06:40;;;;;;;15.38;11.80;;;11.20;99.90;;;;;;6239681;22;20263;-75
2021/09/20 06:09:06;;;;;;;14.80;11.10;;;11.20;99.90;;;;;;6242941;22;20023;-75
2021/09/20 06:11:32;;;;;;;16.20;11.38;;;11.20;99.90;;;;;;6242009;22;20020;-75
2021/09/20 06:13:58;;;;;;;14.80;11.00;;;11.30;99.90;;;;;;6265646;22;20090;-75
2021/09/20 06:16:24;;;;;;;14.30;11.30;;;11.30;99.90;;;;;;6214083;22;20485;-75
2021/09/20 06:18:51;;;;;;;13.35;10.85;;;11.30;99.90;;;;;;6221488;22;20505;-75
2021/09/20 06:21:19;;;;;;;14.57;11.05;;;11.40;99.90;;;;;;6244846;22;20015;-75
2021/09/20 06:23:45;;;;;;;14.48;10.70;;;11.40;99.90;;;;;;6273113;22;20057;-75
2021/09/20 06:26:11;;;;;;;13.80;10.05;;;11.40;99.90;;;;;;6246284;22;20092;-75
2021/09/20 06:28:37;;;;;;;12.77;9.60;;;11.50;99.90;;;;;;6247601;22;20039;-75
2021/09/20 06:31:03;;;;;;;15.13;10.52;;;11.50;99.90;;;;;;6247584;22;20073;-76
2021/09/20 06:33:33;;;;;;;15.38;10.15;;;11.50;99.90;;;;;;6240311;22;20019;-76
2021/09/20 06:35:59;;;;;;;13.95;10.43;;;11.60;99.90;;;;;;6271474;22;20011;-75
2021/09/20 06:38:25;;;;;;;13.55;10.35;;;11.60;99.90;;;;;;6269624;22;20020;-76
2021/09/20 06:40:51;;;;;;;12.15;10.38;;;11.60;99.90;;;;;;6245308;22;20069;-75
2021/09/20 06:43:17;;;;;;;15.35;10.98;;;11.70;99.90;;;;;;6219310;22;20019;-75
2021/09/20 06:45:42;;;;;;;15.77;10.43;;;11.70;99.90;;;;;;6273540;22;20486;-75
2021/09/20 06:48:08;;;;;;;14.38;9.93;;;11.70;99.90;;;;;;6270922;22;20075;-75
2021/09/20 06:50:34;;;;;;;13.50;9.52;;;11.80;99.90;;;;;;6221913;22;20019;-74
2021/09/20 06:53:00;;;;;;;11.70;9.52;;;11.80;99.90;;;;;;6219772;22;20034;-75
2021/09/20 06:55:26;;;;;;;13.20;9.63;;;11.80;99.90;;;;;;6245663;22;20258;-75
2021/09/20 06:57:57;;;;;;;12.10;9.88;;;11.90;99.90;;;;;;6271272;22;20061;-75
2021/09/20 07:00:23;;;;;;;12.55;9.68;;;11.90;99.90;;;;;;6243479;22;20015;-75
2021/09/20 07:02:48;;;;;;;13.45;10.55;;;11.90;99.90;;;;;;6221887;22;20469;-76
2021/09/20 07:05:14;;;;;;;11.90;9.27;;;12.00;99.90;;;;;;6270440;22;20054;-76
2021/09/20 07:07:40;;;;;;;15.40;9.80;;;12.00;99.90;;;;;;6221794;22;20015;-77
2021/09/20 07:10:06;;;;;;;13.30;10.02;;;12.10;99.90;;;;;;6271447;22;20046;-77
2021/09/20 07:12:32;;;;;;;13.10;9.77;;;12.20;99.90;;;;;;6243713;22;20098;-78
2021/09/20 07:14:58;;;;;;;11.50;8.38;;;12.20;99.90;;;;;;6245139;22;20058;-76
2021/09/20 07:17:24;;;;;;;11.02;8.70;;;12.30;99.90;;;;;;6219463;22;20110;-77
2021/09/20 07:19:53;;;;;;;10.88;9.10;;;12.40;99.90;;;;;;6244555;22;20047;-77
2021/09/20 07:22:19;;;;;;;11.10;8.35;;;12.40;99.90;;;;;;6244707;22;20112;-76
2021/09/20 07:24:44;;;;;;;10.02;8.80;;;12.50;99.90;;;;;;6245597;22;20022;-76
2021/09/20 07:27:10;;;;;;;11.23;8.32;;;12.50;99.90;;;;;;6271129;22;20019;-77
2021/09/20 07:29:36;;;;;;;12.23;8.75;;;12.60;99.90;;;;;;6266315;22;20020;-77
2021/09/20 07:32:03;;;;;;;10.27;8.27;;;12.60;99.90;;;;;;6220713;22;20513;-77
2021/09/20 07:34:29;;;;;;;9.90;8.05;;;12.70;99.90;;;;;;6242989;22;20015;-77
2021/09/20 07:36:55;;;;;;;9.50;7.75;;;12.80;99.90;;;;;;6218221;22;20358;-77
2021/09/20 07:39:21;;;;;;;11.93;7.82;;;12.80;99.90;;;;;;6236219;22;20454;-76
2021/09/20 07:41:47;;;;;;;10.32;8.15;;;12.90;99.90;;;;;;6245937;22;20260;-75
2021/09/20 07:44:12;;;;;;;11.32;7.20;;;12.90;99.90;;;;;;6245158;22;20475;-76
2021/09/20 07:46:38;;;;;;;11.02;7.53;;;13.00;99.90;;;;;;6272045;22;20054;-76
2021/09/20 07:49:04;;;;;;;9.25;7.95;;;13.10;99.90;;;;;;6246854;22;20011;-78
2021/09/20 07:51:30;;;;;;;10.57;7.97;;;13.10;99.90;;;;;;6244987;22;20019;-76
2021/09/20 07:53:55;;;;;;;8.60;7.30;;;13.20;99.90;;;;;;6220155;22;20022;-77
2021/09/20 07:56:21;;;;;;;9.02;6.85;;;13.20;99.90;;;;;;6246417;22;20020;-77
2021/09/20 07:58:47;;;;;;;9.60;7.05;;;13.30;99.90;;;;;;6271836;22;20015;-77
2021/09/20 08:01:13;;;;;;;10.85;7.13;;;13.30;99.90;;;;;;6246181;22;20067;-76
2021/09/20 08:03:39;;;;;;;10.20;6.97;;;13.40;99.90;;;;;;6219651;22;20446;-76
2021/09/20 08:06:07;;;;;;;10.63;7.25;;;13.40;99.90;;;;;;6245467;22;20027;-75
2021/09/20 08:08:33;;;;;;;7.32;6.55;;;13.50;99.90;;;;;;6245699;22;20023;-75
2021/09/20 08:10:59;;;;;;;9.60;6.95;;;13.60;99.90;;;;;;6246492;22;20019;-74
2021/09/20 08:13:25;;;;;;;8.23;6.10;;;13.50;99.90;;;;;;6244050;22;20011;-76
2021/09/20 08:15:51;;;;;;;9.07;6.60;;;13.60;99.90;;;;;;6221058;22;20065;-75
2021/09/20 08:18:17;;;;;;;8.32;6.38;;;13.70;99.90;;;;;;6221246;22;20015;-75
2021/09/20 08:20:45;;;;;;;8.48;6.25;;;13.70;99.90;;;;;;6272392;22;20082;-75
2021/09/20 08:23:11;;;;;;;8.18;6.38;;;13.70;99.90;;;;;;6245989;22;20369;-75
2021/09/20 08:25:37;;;;;;;10.13;6.25;;;13.70;99.90;;;;;;6271458;22;20537;-77
2021/09/20 08:28:11;;;;;;;8.82;6.35;;;13.80;99.90;;;;;;6246381;22;20020;-76
2021/09/20 08:30:38;;;;;;;8.70;5.82;;;13.80;99.90;;;;;;6300562;22;20548;-75
2021/09/20 08:33:04;;;;;;;9.40;6.43;;;13.90;99.90;;;;;;6247757;22;20045;-75
2021/09/20 08:35:33;;;;;;;8.27;5.72;;;13.90;99.90;;;;;;6272595;22;20019;-75
2021/09/20 08:37:59;;;;;;;8.60;6.38;;;13.80;99.90;;;;;;6270858;22;20026;-76
2021/09/20 08:40:27;;;;;;;9.48;6.13;;;13.90;99.90;;;;;;6220754;22;20011;-75
2021/09/20 08:42:54;;;;;;;7.90;5.63;;;14.00;99.90;;;;;;6244058;22;20015;-76
2021/09/20 08:45:22;;;;;;;7.22;5.95;;;14.00;99.90;;;;;;6246682;22;20038;-76
2021/09/20 08:47:50;;;;;;;8.15;5.93;;;14.00;99.90;;;;;;6272349;22;20327;-76
2021/09/20 08:50:20;;;;;;;9.93;5.95;;;14.10;99.90;;;;;;6273065;22;20470;-76
2021/09/20 08:52:46;;;;;;;7.22;5.05;;;14.20;99.90;;;;;;6270419;22;20022;-76
2021/09/20 08:55:13;;;;;;;7.82;4.88;;;14.20;99.90;;;;;;6247851;22;20022;-76
2021/09/20 08:57:39;;;;;;;6.60;4.95;;;14.30;99.90;;;;;;6273641;22;20022;-75
2021/09/20 09:00:08;;;;;;;7.85;5.10;;;14.30;99.90;;;;;;6250156;22;20015;-76
2021/09/20 09:02:33;;;;;;;7.72;4.55;;;14.40;99.90;;;;;;6271011;22;20043;-76
2021/09/20 09:05:21;;;;;;;6.60;4.47;;;14.40;99.90;;;;;;6247088;22;20020;-75
2021/09/20 09:07:54;;;;;;;8.05;4.50;;;14.50;99.90;;;;;;6249175;22;20466;-75
2021/09/20 09:10:23;;;;;;;8.02;4.57;;;14.50;99.90;;;;;;6273058;22;20023;-74
2021/09/20 09:12:50;;;;;;;6.20;4.00;;;14.60;99.90;;;;;;6275736;22;20189;-74
2021/09/20 09:15:17;;;;;;;6.95;4.57;;;14.60;99.50;;;;;;6249538;22;20023;-76
2021/09/20 09:17:45;;;;;;;8.63;3.70;;;14.70;99.70;;;;;;6268442;22;20081;-78
2021/09/20 09:20:22;;;;;;;6.50;3.75;;;14.70;99.60;;;;;;6269267;22;20027;-75
2021/09/20 09:22:57;;;;;;;5.72;3.55;;;14.70;99.40;;;;;;6240445;22;20019;-77
2021/09/20 09:25:28;;;;;;;5.40;3.50;;;14.80;99.10;;;;;;6267592;22;20026;-77
2021/09/20 09:28:00;;;;;;;4.90;3.08;;;14.80;98.50;;;;;;6268845;22;20028;-74
2021/09/20 09:30:39;;;;;;;5.13;3.10;;;14.90;98.30;;;;;;6269265;22;20016;-75
2021/09/20 09:33:11;;;;;;;6.47;3.15;;;14.90;97.50;;;;;;6240482;22;20019;-77
2021/09/20 09:35:41;;;;;;;4.95;3.22;;;15.00;97.50;;;;;;6243084;22;20019;-74
2021/09/20 09:38:09;;;;;;;5.15;2.90;;;15.10;97.70;;;;;;6267632;22;20460;-75
2021/09/20 09:40:58;;;;;;;6.53;3.40;;;15.20;97.10;;;;;;6268078;22;20020;-74
2021/09/20 09:43:36;;;;;;;5.47;2.72;;;15.30;96.50;;;;;;6239886;22;20095;-75
2021/09/20 09:46:23;;;;;;;5.28;3.00;;;15.40;96.60;;;;;;6242788;22;20020;-75
2021/09/20 09:48:55;;;;;;;8.68;3.10;;;15.50;96.40;;;;;;6245335;22;20015;-74
2021/09/20 09:51:21;;;;;;;6.15;2.97;;;15.70;96.00;;;;;;6243267;22;20015;-75
2021/09/20 09:53:49;;;;;;;4.43;3.08;;;15.70;94.70;;;;;;6240709;22;20030;-75
2021/09/20 09:56:15;;;;;;;3.63;2.40;;;15.80;94.80;;;;;;6241666;22;20086;-75
2021/09/20 09:59:04;;;;;;;6.07;2.30;;;15.90;94.80;;;;;;6266515;22;20369;-75
2021/09/20 10:01:35;;;;;;;5.57;2.50;;;16.00;93.10;;;;;;6242040;22;20077;-75
2021/09/20 10:04:23;;;;;;;3.63;2.10;;;16.00;93.80;;;;;;6240192;22;20338;-77
2021/09/20 10:06:55;;;;;;;4.03;2.08;;;16.00;92.50;;;;;;6263340;22;20286;-75
2021/09/20 10:09:26;;;;;;;3.97;1.90;;;16.10;92.00;;;;;;6243558;22;20019;-75
2021/09/20 10:11:57;;;;;;;4.43;2.03;;;16.20;92.10;;;;;;6264305;22;20035;-77
2021/09/20 10:14:25;;;;;;;3.65;1.70;;;16.30;91.80;;;;;;6242674;22;20024;-76
2021/09/20 10:16:55;;;;;;;3.45;1.77;;;16.30;91.30;;;;;;6245535;22;20262;-78
2021/09/20 10:19:24;;;;;;;2.75;1.30;;;16.40;90.50;;;;;;6270807;22;20041;-77
2021/09/20 10:21:51;;;;;;;3.25;1.63;;;16.50;88.20;;;;;;6269428;22;20050;-78
2021/09/20 10:24:17;;;;;;;2.97;1.30;;;16.50;86.50;;;;;;6219273;22;20129;-78
2021/09/20 10:26:44;;;;;;;2.42;1.50;;;16.50;85.90;;;;;;6268778;22;20019;-78
2021/09/20 10:29:14;;;;;;;3.58;1.50;;;16.60;87.20;;;;;;6246518;22;20016;-78
2021/09/20 10:31:42;;;;;;;2.78;1.50;;;16.60;86.50;;;;;;6244430;22;20026;-77
2021/09/20 10:34:24;;;;;;;3.38;1.38;;;16.70;85.40;;;;;;6244195;22;20019;-79
2021/09/20 10:36:55;;;;;;;3.15;1.38;;;16.70;82.80;;;;;;6269113;22;20015;-78
2021/09/20 10:39:43;;;;;;;3.60;1.80;;;16.80;76.10;;;;;;6267286;22;20347;-77
2021/09/20 10:42:11;;;;;;;2.53;1.30;;;16.70;80.30;;;;;;6244125;22;20030;-78
2021/09/20 10:44:41;;;;;;;3.78;1.60;;;16.80;80.30;;;;;;6246317;22;20046;-78
2021/09/20 10:47:16;;;;;;;4.15;1.30;;;16.80;78.20;;;;;;6271900;22;20094;-77
2021/09/20 10:49:50;;;;;;;2.50;1.20;;;16.90;78.40;;;;;;6244340;22;20011;-78
2021/09/20 10:52:17;;;;;;;3.65;1.30;;;16.90;76.70;;;;;;6244520;22;20101;-77
2021/09/20 10:55:09;;;;;;;9.05;3.58;;;16.90;78.10;;;;;;6220669;22;20015;-78
2021/09/20 10:57:38;;;;;;;3.00;1.25;;;16.90;75.20;;;;;;6266035;22;20420;-77
2021/09/20 11:00:24;;;;;;;3.78;1.23;;;16.90;74.30;;;;;;6245958;22;20321;-78
2021/09/20 11:02:53;;;;;;;2.75;1.33;;;17.00;75.30;;;;;;6184543;23;20016;-77
2021/09/20 11:05:25;;;;;;;1.88;1.13;;;17.00;72.80;;;;;;6184126;23;20107;-77
2021/09/20 11:07:52;;;;;;;2.22;1.20;;;17.10;74.80;;;;;;6179828;23;20020;-77
2021/09/20 11:10:30;;;;;;;2.08;1.10;;;17.20;71.40;;;;;;6233023;23;20024;-78
2021/09/20 11:13:02;;;;;;;2.38;1.20;;;17.20;70.10;;;;;;6183954;23;20023;-78
2021/09/20 11:15:39;;;;;;;5.25;0.98;;;17.20;66.40;;;;;;6208073;23;20027;-78
2021/09/20 11:18:08;;;;;;;2.65;1.33;;;17.10;67.10;;;;;;6182665;23;20023;-78
2021/09/20 11:20:41;;;;;;;2.58;1.30;;;17.00;67.80;;;;;;6181593;23;20020;-78
2021/09/20 11:23:13;;;;;;;4.07;2.10;;;17.00;65.10;;;;;;6233999;23;20372;-78
2021/09/20 11:25:39;;;;;;;2.40;1.35;;;17.00;66.10;;;;;;6184099;23;20016;-77
2021/09/20 11:28:05;;;;;;;3.67;1.20;;;16.90;67.40;;;;;;6158680;23;20042;-77
2021/09/20 11:30:30;;;;;;;5.70;1.45;;;16.90;69.00;;;;;;6185708;23;20016;-77
2021/09/20 11:33:00;;;;;;;3.60;1.48;;;16.80;70.20;;;;;;6165595;22;20622;-77
2021/09/20 11:35:29;;;;;;;2.60;1.30;;;16.80;69.00;;;;;;6272370;22;20023;-77
2021/09/20 11:37:57;;;;;;;4.15;1.48;;;16.80;71.40;;;;;;6244772;22;20514;-78
2021/09/20 11:40:25;;;;;;;1.77;1.23;;;16.80;66.50;;;;;;6270856;22;20102;-78
2021/09/20 11:42:55;;;;;;;2.45;1.10;;;16.60;66.00;;;;;;6272159;22;20448;-76
2021/09/20 11:45:31;;;;;;;2.77;1.20;;;16.60;67.60;;;;;;6271539;22;20020;-77
2021/09/20 11:48:06;;;;;;;2.33;1.20;;;16.60;69.40;;;;;;6245571;22;20351;-77
2021/09/20 11:50:34;;;;;;;2.08;1.30;;;16.50;68.50;;;;;;6242522;22;20046;-76
2021/09/20 11:53:10;;;;;;;5.13;1.30;;;16.50;70.20;;;;;;6271251;22;20019;-77
2021/09/20 11:55:43;;;;;;;2.80;1.33;;;16.50;73.70;;;;;;6271636;22;20019;-77
2021/09/20 11:58:12;;;;;;;2.00;1.30;;;16.50;69.30;;;;;;6267613;22;20022;-78
2021/09/20 12:00:44;;;;;;;3.45;1.23;;;16.50;68.60;;;;;;6243078;22;20046;-76
2021/09/20 12:03:13;;;;;;;3.55;1.42;;;16.30;68.40;;;;;;6245423;22;20015;-76
2021/09/20 12:05:45;;;;;;;3.35;1.30;;;16.30;71.00;;;;;;6268195;22;20015;-77
2021/09/20 12:08:16;;;;;;;1.85;1.08;;;16.20;74.70;;;;;;6248748;22;20027;-76
2021/09/20 12:10:47;;;;;;;3.15;1.38;;;16.10;75.30;;;;;;6273919;22;20451;-77
2021/09/20 12:13:25;;;;;;;2.70;1.17;;;16.10;75.80;;;;;;6271352;22;20015;-76
2021/09/20 12:15:53;;;;;;;3.88;1.45;;;16.10;72.30;;;;;;6245526;22;20020;-77
2021/09/20 12:18:27;;;;;;;3.53;1.55;;;16.00;72.90;;;;;;6240685;22;20245;-77
2021/09/20 12:20:58;;;;;;;3.53;1.45;;;16.10;74.40;;;;;;6265317;22;20020;-77
2021/09/20 12:23:34;;;;;;;3.75;1.70;;;16.10;73.40;;;;;;6241030;22;20023;-77
2021/09/20 12:26:08;;;;;;;2.45;1.60;;;16.10;74.40;;;;;;6242304;22;20453;-76
2021/09/20 12:29:06;;;;;;;2.03;1.15;;;16.10;76.50;;;;;;6266409;22;20020;-77
2021/09/20 12:31:32;;;;;;;2.40;1.30;;;16.20;74.60;;;;;;6241004;22;20020;-78
2021/09/20 12:34:02;;;;;;;2.70;1.77;;;16.30;75.60;;;;;;6240727;22;20550;-77
2021/09/20 12:36:36;;;;;;;3.38;1.50;;;16.30;75.90;;;;;;6240279;22;20543;-78
2021/09/20 12:39:17;;;;;;;3.55;1.38;;;16.40;77.50;;;;;;6267401;22;20109;-78
2021/09/20 12:41:55;;;;;;;3.03;1.25;;;16.50;74.00;;;;;;6265714;22;20016;-78